MSC Jordan — HPMK — position and weather

sailwx.info

Track history (hours):
 
Tides and Currents Weather Stations Pressure Air Temp Water Temp Dewpoint Dewpoint Depression Visibility Wind Speed Wind Dir Waves Ship Positions

MSC Jordan

Last reported at 2015-Feb-28 05:32 UTC. Time now 2015-Mar-02 12:52 UTC.
Position N 49°37' W 000°28'.

Length 237 m; draft 10.8 m.

Type: Ship. MMSI: 355194000.

Date/timePositionNaut miles runAvg speedWind from/ knotsBaromVisibWave heightAir tempDewpointWater temp
2015-Feb-28 05:32N 49°37' W 000°28'1515.6
2015-Feb-28 04:33N 49°31' W 000°06'1010.1
2015-Feb-28 03:32N 49°28' E 000°09'0 0.0
2015-Feb-28 02:32N 49°28' E 000°09'0 0.0
2015-Feb-28 01:31N 49°28' E 000°09'0 0.0
2015-Feb-28 00:31N 49°28' E 000°09'0 0.0
2015-Feb-27 23:31N 49°28' E 000°09'0 0.0
2015-Feb-27 22:34N 49°28' E 000°09'0 0.0
2015-Feb-27 21:31N 49°28' E 000°09'0 0.0
2015-Feb-27 20:32N 49°28' E 000°09'0 0.0
2015-Feb-27 19:32N 49°28' E 000°09'0 0.0
2015-Feb-27 18:32N 49°28' E 000°09'0 0.0
2015-Feb-27 17:32N 49°28' E 000°09'0 0.0
2015-Feb-27 16:32N 49°28' E 000°09'0 0.0
2015-Feb-27 15:32N 49°28' E 000°09'0 0.0
2015-Feb-27 14:32N 49°28' E 000°09'0 0.0
2015-Feb-27 13:32N 49°28' E 000°09'0 0.0
2015-Feb-27 12:33N 49°28' E 000°09'10 9.7
2015-Feb-27 11:33N 49°31' W 000°05'1414.0
2015-Feb-27 10:33N 49°45' W 000°11'5014.3
2015-Feb-27 07:05N 50°31' E 000°17'916.9
2015-Feb-27 06:32N 50°34' E 000°31'1616.4
2015-Feb-27 05:33N 50°43' E 000°52'2116.2
2015-Feb-27 04:17N 50°55' E 001°18'1217.1
2015-Feb-27 03:33N 51°04' E 001°31'1817.9
2015-Feb-27 02:33N 51°18' E 001°49'1717.0
2015-Feb-27 01:33N 51°35' E 001°47'1717.0
2015-Feb-27 00:34N 51°51' E 001°39'1111.4
2015-Feb-26 23:34N 51°56' E 001°21'3 3.4
2015-Feb-26 22:34N 51°58' E 001°17'0 0.0
2015-Feb-26 21:32N 51°58' E 001°17'0 0.0
2015-Feb-26 20:31N 51°58' E 001°17'0 0.0
2015-Feb-26 19:32N 51°58' E 001°17'0 0.0
2015-Feb-26 18:32N 51°58' E 001°17'0 0.0
2015-Feb-26 17:32N 51°58' E 001°17'0 0.0
2015-Feb-26 16:32N 51°58' E 001°17'0 0.0
2015-Feb-26 15:32N 51°58' E 001°17'0 0.0
2015-Feb-26 14:32N 51°58' E 001°17'0 0.0
2015-Feb-26 13:32N 51°58' E 001°17'0 0.0
2015-Feb-26 12:33N 51°58' E 001°17'0 0.2
2015-Feb-26 11:34N 51°58' E 001°17'9 8.6
2015-Feb-26 10:34N 51°56' E 001°31'10 9.9
2015-Feb-26 09:33N 51°51' E 001°45'1817.7
2015-Feb-26 08:34N 51°34' E 001°51'1818.4
2015-Feb-26 07:33N 51°21' E 002°12'1717.1
2015-Feb-26 06:33N 51°23' E 002°40'1313.3
2015-Feb-26 05:34N 51°24' E 003°01'1414.4
2015-Feb-26 04:33N 51°25' E 003°24'1111.4
2015-Feb-26 03:34N 51°25' E 003°42'1010.0
2015-Feb-26 02:33N 51°26' E 003°58'9 8.8
2015-Feb-26 01:33N 51°24' E 004°12'5 4.6
2015-Feb-26 00:34N 51°21' E 004°17'1 1.2
2015-Feb-25 23:33N 51°20' E 004°18'1 1.2
2015-Feb-25 22:30N 51°20' E 004°20'0 0.0
2015-Feb-25 21:30N 51°20' E 004°20'0 0.0
2015-Feb-25 20:33N 51°20' E 004°20'0 0.0
2015-Feb-25 19:32N 51°20' E 004°20'0 0.0
2015-Feb-25 18:33N 51°20' E 004°20'0 0.0
2015-Feb-25 17:33N 51°20' E 004°20'0 0.0
2015-Feb-25 16:32N 51°20' E 004°20'0 0.0
2015-Feb-25 15:33N 51°20' E 004°20'0 0.0
2015-Feb-25 14:33N 51°20' E 004°20'0 0.0
2015-Feb-25 13:30N 51°20' E 004°20'0 0.0
2015-Feb-25 12:33N 51°20' E 004°20'0 0.0
2015-Feb-25 11:30N 51°20' E 004°20'0 0.0
2015-Feb-25 10:31N 51°20' E 004°20'0 0.0
2015-Feb-25 09:33N 51°20' E 004°20'0 0.0
2015-Feb-25 08:31N 51°20' E 004°20'0 0.0
2015-Feb-25 07:32N 51°20' E 004°20'0 0.0
2015-Feb-25 06:33N 51°20' E 004°20'0 0.0
2015-Feb-25 05:30N 51°20' E 004°20'0 0.0
2015-Feb-25 04:30N 51°20' E 004°20'0 0.0
2015-Feb-25 03:34N 51°20' E 004°20'0 0.0
2015-Feb-25 02:28N 51°20' E 004°20'0 0.0
2015-Feb-25 01:28N 51°20' E 004°20'0 0.0
2015-Feb-25 00:32N 51°20' E 004°20'0 0.0
2015-Feb-24 23:29N 51°20' E 004°20'0 0.0
2015-Feb-24 22:29N 51°20' E 004°20'0 0.0
2015-Feb-24 21:32N 51°20' E 004°20'0 0.0
2015-Feb-24 20:30N 51°20' E 004°20'0 0.0
2015-Feb-24 19:33N 51°20' E 004°20'0 0.0
2015-Feb-24 18:33N 51°20' E 004°20'0 0.0
2015-Feb-24 17:33N 51°20' E 004°20'2 2.5
2015-Feb-24 16:34N 51°21' E 004°17'1 1.1
2015-Feb-24 15:34N 51°21' E 004°15'7 7.0
2015-Feb-24 14:34N 51°22' E 004°04'5 5.2
2015-Feb-24 13:34N 51°22' E 003°56'9 8.7
2015-Feb-24 12:33N 51°25' E 003°42'1110.7
2015-Feb-24 11:33N 51°25' E 003°25'1514.9
2015-Feb-24 10:33N 51°25' E 003°01'1514.7
2015-Feb-24 09:33N 51°38' E 003°11'9 9.2
2015-Feb-24 08:32N 51°47' E 003°15'3 3.2
2015-Feb-24 07:33N 51°48' E 003°20'1 0.4
2015-Feb-24 06:22N 51°48' E 003°21'0 0.0
2015-Feb-24 05:28N 51°48' E 003°21'0 0.0
2015-Feb-24 04:31N 51°48' E 003°21'0 0.0
2015-Feb-24 03:04N 51°48' E 003°21'0 0.0
2015-Feb-24 02:31N 51°48' E 003°21'0 0.1
2015-Feb-24 01:04N 51°48' E 003°21'0 0.1
2015-Feb-24 00:31N 51°48' E 003°21'0 0.1
2015-Feb-23 22:31N 51°48' E 003°21'0 0.0
2015-Feb-23 21:31N 51°48' E 003°21'0 0.0
2015-Feb-23 20:22N 51°48' E 003°21'0 0.0
2015-Feb-23 19:31N 51°48' E 003°21'0 0.0
2015-Feb-23 18:31N 51°48' E 003°21'0 0.0
2015-Feb-23 17:19N 51°48' E 003°21'0 0.0
2015-Feb-23 16:31N 51°48' E 003°21'0 0.0
2015-Feb-23 15:30N 51°48' E 003°21'0 0.0
2015-Feb-23 14:33N 51°48' E 003°21'0 0.2
2015-Feb-23 12:27N 51°48' E 003°20'0 0.0
2015-Feb-23 11:15N 51°48' E 003°20'0 0.3
2015-Feb-23 10:33N 51°48' E 003°21'0 0.2
2015-Feb-23 09:30N 51°48' E 003°21'0 0.1
2015-Feb-23 08:27N 51°48' E 003°21'0 0.0
2015-Feb-23 07:33N 51°48' E 003°21'0 0.0
2015-Feb-23 06:33N 51°48' E 003°21'0 0.0
2015-Feb-23 05:27N 51°48' E 003°21'0 0.0
2015-Feb-23 04:30N 51°48' E 003°21'0 0.1
2015-Feb-23 03:30N 51°48' E 003°21'0 0.0
2015-Feb-23 02:27N 51°48' E 003°21'0 0.0
2015-Feb-23 01:33N 51°48' E 003°21'0 0.0
2015-Feb-23 00:21N 51°48' E 003°21'0 0.1
2015-Feb-22 23:30N 51°48' E 003°21'0 0.0
2015-Feb-22 22:33N 51°48' E 003°21'0 0.0
2015-Feb-22 21:33N 51°48' E 003°21'0 0.0
2015-Feb-22 20:06N 51°48' E 003°21'0 0.0
2015-Feb-22 19:24N 51°48' E 003°21'0 0.0
2015-Feb-22 18:30N 51°48' E 003°21'0 0.0
2015-Feb-22 17:33N 51°48' E 003°21'0 0.0
2015-Feb-22 16:33N 51°48' E 003°21'5 4.8
2015-Feb-22 15:27N 51°54' E 003°20'1514.9
2015-Feb-22 14:24N 52°09' E 003°22'7916.1
2015-Feb-22 09:31N 53°16' E 004°29'1615.9
2015-Feb-22 08:31N 53°32' E 004°37'1717.6
2015-Feb-22 07:32N 53°48' E 004°46'1716.9
2015-Feb-22 06:31N 54°04' E 004°56'1616.2
2015-Feb-22 05:33N 54°18' E 005°07'28015.5
2015-Feb-21 11:31N 57°48' E 010°41'1516.1
2015-Feb-21 10:33N 57°40' E 011°06'1616.2
2015-Feb-21 09:33N 57°28' E 011°26'1616.5
2015-Feb-21 08:33N 57°13' E 011°37'1716.6
2015-Feb-21 07:31N 56°56' E 011°47'1515.3
2015-Feb-21 06:33N 56°42' E 011°50'1816.9
2015-Feb-21 05:31N 56°27' E 011°34'10913.8
2015-Feb-20 21:33N 54°38' E 011°07'1616.5
2015-Feb-20 20:33N 54°30' E 011°32'1616.1
2015-Feb-20 19:33N 54°27' E 011°59'1313.3
2015-Feb-20 18:33N 54°36' E 012°15'1716.2
2015-Feb-20 17:32N 54°46' E 012°38'1815.8
2015-Feb-20 16:26N 54°52' E 013°06'1415.7
2015-Feb-20 15:33N 54°56' E 013°29'1615.8
2015-Feb-20 14:33N 55°01' E 013°55'1615.7
2015-Feb-20 13:33N 55°11' E 014°16'1515.3
2015-Feb-20 12:33N 55°24' E 014°32'1515.1
2015-Feb-20 11:33N 55°32' E 014°54'1515.0
2015-Feb-20 10:33N 55°39' E 015°17'35215.8
2015-Feb-19 12:14N 59°38' E 023°20'1215.9
2015-Feb-19 11:27N 59°42' E 023°43'1515.9
2015-Feb-19 10:32N 59°46' E 024°11'1717.0
2015-Feb-19 09:33N 59°50' E 024°43'5016.6
2015-Feb-19 06:33N 59°60' E 026°21'2415.8
2015-Feb-19 05:03N 60°01' E 027°08'9111.6
2015-Feb-18 21:09N 59°53' E 030°10'1 1.3
2015-Feb-18 20:19N 59°53' E 030°12'0 0.3
2015-Feb-18 19:31N 59°52' E 030°12'0 0.0
2015-Feb-18 18:31N 59°52' E 030°12'0 0.0
2015-Feb-18 17:19N 59°52' E 030°12'0 0.0
2015-Feb-18 16:19N 59°52' E 030°12'0 0.0
2015-Feb-18 15:29N 59°52' E 030°12'0 0.0
2015-Feb-18 14:32N 59°52' E 030°12'0 0.0
2015-Feb-18 13:32N 59°52' E 030°12'0 0.0
2015-Feb-18 12:14N 59°52' E 030°12'0 0.0
2015-Feb-18 09:32N 59°52' E 030°12'0 0.0
2015-Feb-18 08:32N 59°52' E 030°12'0 0.0
2015-Feb-18 07:32N 59°52' E 030°12'0 0.0
2015-Feb-18 06:33N 59°52' E 030°12'0 0.0
2015-Feb-18 05:33N 59°52' E 030°12'  
Track history (hours):
 
Tides and Currents Weather Stations Pressure Air Temp Water Temp Dewpoint Dewpoint Depression Visibility Wind Speed Wind Dir Waves Ship Positions

MSC Jordan

Last reported at 2015-Feb-28 05:32 UTC. Time now 2015-Mar-02 12:52 UTC.
Position N 49°37' W 000°28'.

Length 237 m; draft 10.8 m.

Type: Ship. MMSI: 355194000.

Date/timePositionNaut miles runAvg speedWind from/ knotsBaromVisibWave heightAir tempDewpointWater temp
2015-Feb-28 05:32N 49°37' W 000°28'1515.6
2015-Feb-28 04:33N 49°31' W 000°06'1010.1
2015-Feb-28 03:32N 49°28' E 000°09'0 0.0
2015-Feb-28 02:32N 49°28' E 000°09'0 0.0
2015-Feb-28 01:31N 49°28' E 000°09'0 0.0
2015-Feb-28 00:31N 49°28' E 000°09'0 0.0
2015-Feb-27 23:31N 49°28' E 000°09'0 0.0
2015-Feb-27 22:34N 49°28' E 000°09'0 0.0
2015-Feb-27 21:31N 49°28' E 000°09'0 0.0
2015-Feb-27 20:32N 49°28' E 000°09'0 0.0
2015-Feb-27 19:32N 49°28' E 000°09'0 0.0
2015-Feb-27 18:32N 49°28' E 000°09'0 0.0
2015-Feb-27 17:32N 49°28' E 000°09'0 0.0
2015-Feb-27 16:32N 49°28' E 000°09'0 0.0
2015-Feb-27 15:32N 49°28' E 000°09'0 0.0
2015-Feb-27 14:32N 49°28' E 000°09'0 0.0
2015-Feb-27 13:32N 49°28' E 000°09'0 0.0
2015-Feb-27 12:33N 49°28' E 000°09'10 9.7
2015-Feb-27 11:33N 49°31' W 000°05'1414.0
2015-Feb-27 10:33N 49°45' W 000°11'5014.3
2015-Feb-27 07:05N 50°31' E 000°17'916.9
2015-Feb-27 06:32N 50°34' E 000°31'1616.4
2015-Feb-27 05:33N 50°43' E 000°52'2116.2
2015-Feb-27 04:17N 50°55' E 001°18'1217.1
2015-Feb-27 03:33N 51°04' E 001°31'1817.9
2015-Feb-27 02:33N 51°18' E 001°49'1717.0
2015-Feb-27 01:33N 51°35' E 001°47'1717.0
2015-Feb-27 00:34N 51°51' E 001°39'1111.4
2015-Feb-26 23:34N 51°56' E 001°21'3 3.4
2015-Feb-26 22:34N 51°58' E 001°17'0 0.0
2015-Feb-26 21:32N 51°58' E 001°17'0 0.0
2015-Feb-26 20:31N 51°58' E 001°17'0 0.0
2015-Feb-26 19:32N 51°58' E 001°17'0 0.0
2015-Feb-26 18:32N 51°58' E 001°17'0 0.0
2015-Feb-26 17:32N 51°58' E 001°17'0 0.0
2015-Feb-26 16:32N 51°58' E 001°17'0 0.0
2015-Feb-26 15:32N 51°58' E 001°17'0 0.0
2015-Feb-26 14:32N 51°58' E 001°17'0 0.0
2015-Feb-26 13:32N 51°58' E 001°17'0 0.0
2015-Feb-26 12:33N 51°58' E 001°17'0 0.2
2015-Feb-26 11:34N 51°58' E 001°17'9 8.6
2015-Feb-26 10:34N 51°56' E 001°31'10 9.9
2015-Feb-26 09:33N 51°51' E 001°45'1817.7
2015-Feb-26 08:34N 51°34' E 001°51'1818.4
2015-Feb-26 07:33N 51°21' E 002°12'1717.1
2015-Feb-26 06:33N 51°23' E 002°40'1313.3
2015-Feb-26 05:34N 51°24' E 003°01'1414.4
2015-Feb-26 04:33N 51°25' E 003°24'1111.4
2015-Feb-26 03:34N 51°25' E 003°42'1010.0
2015-Feb-26 02:33N 51°26' E 003°58'9 8.8
2015-Feb-26 01:33N 51°24' E 004°12'5 4.6
2015-Feb-26 00:34N 51°21' E 004°17'1 1.2
2015-Feb-25 23:33N 51°20' E 004°18'1 1.2
2015-Feb-25 22:30N 51°20' E 004°20'0 0.0
2015-Feb-25 21:30N 51°20' E 004°20'0 0.0
2015-Feb-25 20:33N 51°20' E 004°20'0 0.0
2015-Feb-25 19:32N 51°20' E 004°20'0 0.0
2015-Feb-25 18:33N 51°20' E 004°20'0 0.0
2015-Feb-25 17:33N 51°20' E 004°20'0 0.0
2015-Feb-25 16:32N 51°20' E 004°20'0 0.0
2015-Feb-25 15:33N 51°20' E 004°20'0 0.0
2015-Feb-25 14:33N 51°20' E 004°20'0 0.0
2015-Feb-25 13:30N 51°20' E 004°20'0 0.0
2015-Feb-25 12:33N 51°20' E 004°20'0 0.0
2015-Feb-25 11:30N 51°20' E 004°20'0 0.0
2015-Feb-25 10:31N 51°20' E 004°20'0 0.0
2015-Feb-25 09:33N 51°20' E 004°20'0 0.0
2015-Feb-25 08:31N 51°20' E 004°20'0 0.0
2015-Feb-25 07:32N 51°20' E 004°20'0 0.0
2015-Feb-25 06:33N 51°20' E 004°20'0 0.0
2015-Feb-25 05:30N 51°20' E 004°20'0 0.0
2015-Feb-25 04:30N 51°20' E 004°20'0 0.0
2015-Feb-25 03:34N 51°20' E 004°20'0 0.0
2015-Feb-25 02:28N 51°20' E 004°20'0 0.0
2015-Feb-25 01:28N 51°20' E 004°20'0 0.0
2015-Feb-25 00:32N 51°20' E 004°20'0 0.0
2015-Feb-24 23:29N 51°20' E 004°20'0 0.0
2015-Feb-24 22:29N 51°20' E 004°20'0 0.0
2015-Feb-24 21:32N 51°20' E 004°20'0 0.0
2015-Feb-24 20:30N 51°20' E 004°20'0 0.0
2015-Feb-24 19:33N 51°20' E 004°20'0 0.0
2015-Feb-24 18:33N 51°20' E 004°20'0 0.0
2015-Feb-24 17:33N 51°20' E 004°20'2 2.5
2015-Feb-24 16:34N 51°21' E 004°17'1 1.1
2015-Feb-24 15:34N 51°21' E 004°15'7 7.0
2015-Feb-24 14:34N 51°22' E 004°04'5 5.2
2015-Feb-24 13:34N 51°22' E 003°56'9 8.7
2015-Feb-24 12:33N 51°25' E 003°42'1110.7
2015-Feb-24 11:33N 51°25' E 003°25'1514.9
2015-Feb-24 10:33N 51°25' E 003°01'1514.7
2015-Feb-24 09:33N 51°38' E 003°11'9 9.2
2015-Feb-24 08:32N 51°47' E 003°15'3 3.2
2015-Feb-24 07:33N 51°48' E 003°20'1 0.4
2015-Feb-24 06:22N 51°48' E 003°21'0 0.0
2015-Feb-24 05:28N 51°48' E 003°21'0 0.0
2015-Feb-24 04:31N 51°48' E 003°21'0 0.0
2015-Feb-24 03:04N 51°48' E 003°21'0 0.0
2015-Feb-24 02:31N 51°48' E 003°21'0 0.1
2015-Feb-24 01:04N 51°48' E 003°21'0 0.1
2015-Feb-24 00:31N 51°48' E 003°21'0 0.1
2015-Feb-23 22:31N 51°48' E 003°21'0 0.0
2015-Feb-23 21:31N 51°48' E 003°21'0 0.0
2015-Feb-23 20:22N 51°48' E 003°21'0 0.0
2015-Feb-23 19:31N 51°48' E 003°21'0 0.0
2015-Feb-23 18:31N 51°48' E 003°21'0 0.0
2015-Feb-23 17:19N 51°48' E 003°21'0 0.0
2015-Feb-23 16:31N 51°48' E 003°21'0 0.0
2015-Feb-23 15:30N 51°48' E 003°21'0 0.0
2015-Feb-23 14:33N 51°48' E 003°21'0 0.2
2015-Feb-23 12:27N 51°48' E 003°20'0 0.0
2015-Feb-23 11:15N 51°48' E 003°20'0 0.3
2015-Feb-23 10:33N 51°48' E 003°21'0 0.2
2015-Feb-23 09:30N 51°48' E 003°21'0 0.1
2015-Feb-23 08:27N 51°48' E 003°21'0 0.0
2015-Feb-23 07:33N 51°48' E 003°21'0 0.0
2015-Feb-23 06:33N 51°48' E 003°21'0 0.0
2015-Feb-23 05:27N 51°48' E 003°21'0 0.0
2015-Feb-23 04:30N 51°48' E 003°21'0 0.1
2015-Feb-23 03:30N 51°48' E 003°21'0 0.0
2015-Feb-23 02:27N 51°48' E 003°21'0 0.0
2015-Feb-23 01:33N 51°48' E 003°21'0 0.0
2015-Feb-23 00:21N 51°48' E 003°21'0 0.1
2015-Feb-22 23:30N 51°48' E 003°21'0 0.0
2015-Feb-22 22:33N 51°48' E 003°21'0 0.0
2015-Feb-22 21:33N 51°48' E 003°21'0 0.0
2015-Feb-22 20:06N 51°48' E 003°21'0 0.0
2015-Feb-22 19:24N 51°48' E 003°21'0 0.0
2015-Feb-22 18:30N 51°48' E 003°21'0 0.0
2015-Feb-22 17:33N 51°48' E 003°21'0 0.0
2015-Feb-22 16:33N 51°48' E 003°21'5 4.8
2015-Feb-22 15:27N 51°54' E 003°20'1514.9
2015-Feb-22 14:24N 52°09' E 003°22'7916.1
2015-Feb-22 09:31N 53°16' E 004°29'1615.9
2015-Feb-22 08:31N 53°32' E 004°37'1717.6
2015-Feb-22 07:32N 53°48' E 004°46'1716.9
2015-Feb-22 06:31N 54°04' E 004°56'1616.2
2015-Feb-22 05:33N 54°18' E 005°07'28015.5
2015-Feb-21 11:31N 57°48' E 010°41'1516.1
2015-Feb-21 10:33N 57°40' E 011°06'1616.2
2015-Feb-21 09:33N 57°28' E 011°26'1616.5
2015-Feb-21 08:33N 57°13' E 011°37'1716.6
2015-Feb-21 07:31N 56°56' E 011°47'1515.3
2015-Feb-21 06:33N 56°42' E 011°50'1816.9
2015-Feb-21 05:31N 56°27' E 011°34'10913.8
2015-Feb-20 21:33N 54°38' E 011°07'1616.5
2015-Feb-20 20:33N 54°30' E 011°32'1616.1
2015-Feb-20 19:33N 54°27' E 011°59'1313.3
2015-Feb-20 18:33N 54°36' E 012°15'1716.2
2015-Feb-20 17:32N 54°46' E 012°38'1815.8
2015-Feb-20 16:26N 54°52' E 013°06'1415.7
2015-Feb-20 15:33N 54°56' E 013°29'1615.8
2015-Feb-20 14:33N 55°01' E 013°55'1615.7
2015-Feb-20 13:33N 55°11' E 014°16'1515.3
2015-Feb-20 12:33N 55°24' E 014°32'1515.1
2015-Feb-20 11:33N 55°32' E 014°54'1515.0
2015-Feb-20 10:33N 55°39' E 015°17'35215.8
2015-Feb-19 12:14N 59°38' E 023°20'1215.9
2015-Feb-19 11:27N 59°42' E 023°43'1515.9
2015-Feb-19 10:32N 59°46' E 024°11'1717.0
2015-Feb-19 09:33N 59°50' E 024°43'5016.6
2015-Feb-19 06:33N 59°60' E 026°21'2415.8
2015-Feb-19 05:03N 60°01' E 027°08'9111.6
2015-Feb-18 21:09N 59°53' E 030°10'1 1.3
2015-Feb-18 20:19N 59°53' E 030°12'0 0.3
2015-Feb-18 19:31N 59°52' E 030°12'0 0.0
2015-Feb-18 18:31N 59°52' E 030°12'0 0.0
2015-Feb-18 17:19N 59°52' E 030°12'0 0.0
2015-Feb-18 16:19N 59°52' E 030°12'0 0.0
2015-Feb-18 15:29N 59°52' E 030°12'0 0.0
2015-Feb-18 14:32N 59°52' E 030°12'0 0.0
2015-Feb-18 13:32N 59°52' E 030°12'0 0.0
2015-Feb-18 12:14N 59°52' E 030°12'0 0.0
2015-Feb-18 09:32N 59°52' E 030°12'0 0.0
2015-Feb-18 08:32N 59°52' E 030°12'0 0.0
2015-Feb-18 07:32N 59°52' E 030°12'0 0.0
2015-Feb-18 06:33N 59°52' E 030°12'0 0.0
2015-Feb-18 05:33N 59°52' E 030°12'  

Dump ship's entire track history